createdAt,value
2018-09-29T00:01:08.682Z,85.44
2018-09-29T00:06:27.521Z,85.28
2018-09-29T00:11:46.180Z,85.69
2018-09-29T00:17:04.944Z,85.48
2018-09-29T00:22:23.594Z,85.37
2018-09-29T00:27:42.342Z,85.80
2018-09-29T00:33:01.184Z,87.02
2018-09-29T00:38:19.943Z,88.15
2018-09-29T00:43:38.588Z,86.78
2018-09-29T00:48:57.200Z,85.95
2018-09-29T00:54:15.922Z,85.27
2018-09-29T00:59:34.536Z,85.49
2018-09-29T01:04:53.187Z,85.09
2018-09-29T01:10:11.857Z,84.80
2018-09-29T01:15:30.521Z,84.43
2018-09-29T01:20:49.172Z,84.83
2018-09-29T01:26:08.407Z,85.37
2018-09-29T01:31:27.038Z,86.10
2018-09-29T01:36:45.701Z,85.73
2018-09-29T01:42:04.434Z,86.52
2018-09-29T01:47:23.237Z,85.79
2018-09-29T01:52:42.146Z,86.39
2018-09-29T01:58:00.831Z,84.92
2018-09-29T02:03:19.486Z,85.26
2018-09-29T02:08:38.235Z,85.36
2018-09-29T02:13:56.867Z,85.83
2018-09-29T02:19:15.483Z,86.25
2018-09-29T02:24:34.147Z,86.07
2018-09-29T02:29:52.746Z,87.11
2018-09-29T02:35:11.453Z,86.47
2018-09-29T02:40:30.228Z,87.00
2018-09-29T02:45:49.036Z,86.89
2018-09-29T02:51:07.820Z,87.36
2018-09-29T02:56:26.904Z,87.02
2018-09-29T03:01:45.622Z,87.35
2018-09-29T03:07:04.392Z,87.80
2018-09-29T03:12:23.048Z,86.86
2018-09-29T03:17:41.739Z,87.61
2018-09-29T03:23:00.392Z,87.36
2018-09-29T03:28:19.184Z,86.84
2018-09-29T03:33:37.807Z,86.28
2018-09-29T03:38:56.465Z,86.72
2018-09-29T03:44:15.217Z,86.83
2018-09-29T03:49:34.068Z,86.60
2018-09-29T03:54:52.748Z,87.30
2018-09-29T04:00:11.375Z,86.57
2018-09-29T04:05:30.169Z,87.71
2018-09-29T04:10:48.840Z,86.92
2018-09-29T04:16:07.603Z,86.90
2018-09-29T04:21:26.295Z,86.99
2018-09-29T04:26:44.956Z,86.52
2018-09-29T04:32:03.633Z,86.25
2018-09-29T04:37:22.305Z,86.30
2018-09-29T04:42:41.012Z,85.66
2018-09-29T04:47:59.686Z,85.77
2018-09-29T04:53:18.469Z,86.29
2018-09-29T04:58:37.192Z,86.62
2018-09-29T05:03:55.883Z,85.62
2018-09-29T05:09:14.506Z,86.61
2018-09-29T05:14:33.359Z,87.74
2018-09-29T05:19:52.143Z,86.28
2018-09-29T05:25:10.810Z,86.29
2018-09-29T05:30:29.550Z,86.20
2018-09-29T05:35:48.302Z,86.54
2018-09-29T05:41:07.056Z,86.72
2018-09-29T05:46:25.783Z,85.98
2018-09-29T05:51:44.565Z,86.12
2018-09-29T05:57:03.427Z,87.45
2018-09-29T06:02:22.283Z,86.01
2018-09-29T06:07:40.935Z,86.47
2018-09-29T06:12:59.565Z,86.89
2018-09-29T06:18:18.375Z,87.39
2018-09-29T06:23:37.179Z,86.94
2018-09-29T06:28:55.913Z,86.47
2018-09-29T06:34:14.642Z,86.75
2018-09-29T06:39:34.417Z,86.82
2018-09-29T06:44:53.403Z,86.46
2018-09-29T06:50:12.164Z,93.33
2018-09-29T06:55:31.024Z,81.11
2018-09-29T07:00:49.738Z,79.57
2018-09-29T07:06:08.411Z,80.32
2018-09-29T07:11:27.132Z,85.19
2018-09-29T07:16:45.864Z,85.87
2018-09-29T07:22:04.709Z,85.49
2018-09-29T07:27:23.491Z,85.35
2018-09-29T07:32:42.186Z,87.72
2018-09-29T07:38:00.943Z,87.70
2018-09-29T07:43:19.587Z,88.53
2018-09-29T07:48:38.295Z,87.93
2018-09-29T07:53:57.769Z,87.20
2018-09-29T07:59:16.410Z,87.95
2018-09-29T08:04:35.101Z,87.52
2018-09-29T08:09:53.767Z,88.42
2018-09-29T08:15:12.337Z,83.94
2018-09-29T08:20:31.011Z,83.35
2018-09-29T08:25:49.778Z,82.48
2018-09-29T08:31:08.471Z,78.62
2018-09-29T08:36:27.210Z,78.67
2018-09-29T08:41:45.964Z,79.57
2018-09-29T08:47:04.774Z,80.05
2018-09-29T08:52:23.489Z,79.59
2018-09-29T08:57:42.497Z,79.57
2018-09-29T09:03:01.178Z,76.66
2018-09-29T09:08:19.856Z,74.71
2018-09-29T09:13:38.747Z,73.09
2018-09-29T09:18:57.460Z,70.94
2018-09-29T09:24:16.355Z,71.50
2018-09-29T09:29:35.046Z,73.57
2018-09-29T09:34:54.943Z,67.75
2018-09-29T09:40:13.804Z,65.75
2018-09-29T09:45:32.590Z,63.54
2018-09-29T09:50:51.354Z,64.34
2018-09-29T09:56:10.164Z,60.52
2018-09-29T10:01:34.327Z,61.40
2018-09-29T10:06:54.233Z,59.89
2018-09-29T10:12:12.965Z,59.50
2018-09-29T10:17:31.580Z,60.08
2018-09-29T10:22:50.213Z,59.35
2018-09-29T10:28:09.765Z,57.98
2018-09-29T10:33:28.847Z,57.30
2018-09-29T10:38:47.594Z,58.51
2018-09-29T10:44:06.517Z,57.00
2018-09-29T10:49:25.062Z,57.02
2018-09-29T10:54:43.675Z,56.62
2018-09-29T11:00:02.342Z,56.06
2018-09-29T11:05:21.145Z,55.92
2018-09-29T11:10:39.991Z,54.88
2018-09-29T11:15:59.618Z,55.79
2018-09-29T11:21:18.296Z,54.90
2018-09-29T11:26:36.921Z,53.56
2018-09-29T11:31:55.569Z,52.44
2018-09-29T11:37:14.329Z,53.53
2018-09-29T11:42:33.244Z,53.53
2018-09-29T11:47:51.912Z,50.77
2018-09-29T11:53:10.566Z,51.35
2018-09-29T11:58:29.234Z,52.01
2018-09-29T12:03:47.919Z,51.12
2018-09-29T12:09:10.270Z,49.31
2018-09-29T12:14:28.941Z,53.29
2018-09-29T12:19:47.596Z,49.29
2018-09-29T12:25:06.422Z,48.90
2018-09-29T12:30:25.084Z,49.95
2018-09-29T12:35:44.012Z,48.51
2018-09-29T12:41:02.745Z,48.74
2018-09-29T12:46:21.429Z,47.67
2018-09-29T12:51:40.328Z,47.92
2018-09-29T12:56:59.493Z,46.06
2018-09-29T13:02:18.202Z,45.61
2018-09-29T13:07:37.039Z,45.19
2018-09-29T13:12:55.887Z,44.36
2018-09-29T13:18:14.626Z,46.30
2018-09-29T13:23:33.334Z,45.00
2018-09-29T13:28:52.205Z,45.86
2018-09-29T13:34:10.875Z,46.19
2018-09-29T13:39:29.531Z,46.58
2018-09-29T13:44:48.304Z,47.29
2018-09-29T13:50:07.371Z,46.25
2018-09-29T13:55:26.070Z,47.79
2018-09-29T14:00:44.747Z,46.52
2018-09-29T14:06:03.441Z,47.34
2018-09-29T14:11:22.173Z,46.46
2018-09-29T14:16:40.882Z,42.87
2018-09-29T14:21:59.656Z,43.63
2018-09-29T14:27:18.482Z,45.27
2018-09-29T14:32:37.151Z,45.64
2018-09-29T14:37:55.962Z,46.95
2018-09-29T14:43:14.707Z,47.50
2018-09-29T14:48:33.418Z,48.57
2018-09-29T14:53:52.142Z,47.62
2018-09-29T14:59:10.847Z,47.47
2018-09-29T15:04:29.557Z,47.69
2018-09-29T15:09:48.230Z,47.19
2018-09-29T15:15:08.274Z,47.28
2018-09-29T15:20:27.102Z,47.89
2018-09-29T15:25:45.751Z,47.99
2018-09-29T15:31:04.484Z,47.11
2018-09-29T15:36:23.341Z,47.35
2018-09-29T15:41:42.491Z,47.03
2018-09-29T15:47:01.232Z,48.88
2018-09-29T15:52:19.961Z,49.07
2018-09-29T15:57:38.847Z,49.68
2018-09-29T16:02:57.430Z,48.69
2018-09-29T16:08:16.147Z,49.00
2018-09-29T16:13:35.090Z,51.71
2018-09-29T16:18:53.701Z,51.26
2018-09-29T16:24:12.366Z,51.47
2018-09-29T16:29:31.023Z,54.79
2018-09-29T16:34:49.671Z,55.42
2018-09-29T16:40:08.509Z,57.00
2018-09-29T16:45:27.162Z,59.29
2018-09-29T16:50:45.784Z,60.00
2018-09-29T16:56:04.506Z,61.25
2018-09-29T17:01:23.225Z,62.13
2018-09-29T17:06:42.402Z,62.68
2018-09-29T17:12:01.158Z,63.11
2018-09-29T17:17:19.918Z,63.86
2018-09-29T17:22:38.616Z,64.69
2018-09-29T17:28:04.045Z,65.25
2018-09-29T17:33:22.740Z,65.42
2018-09-29T17:38:41.507Z,65.97
2018-09-29T17:44:00.200Z,66.51
2018-09-29T17:49:19.006Z,66.85
2018-09-29T17:54:37.705Z,67.03
2018-09-29T17:59:56.402Z,67.58
2018-09-29T18:05:15.146Z,68.11
2018-09-29T18:10:34.037Z,68.03
2018-09-29T18:15:52.828Z,69.00
2018-09-29T18:21:11.599Z,69.12
2018-09-29T18:26:30.372Z,70.22
2018-09-29T18:31:49.114Z,70.66
2018-09-29T18:37:07.961Z,71.12
2018-09-29T18:42:26.744Z,72.50
2018-09-29T18:47:45.537Z,73.30
2018-09-29T18:53:04.420Z,72.85
2018-09-29T18:58:23.280Z,73.09
2018-09-29T19:03:42.821Z,73.89
2018-09-29T19:09:01.481Z,74.64
2018-09-29T19:14:20.192Z,74.72
2018-09-29T19:19:38.960Z,75.16
2018-09-29T19:24:57.714Z,75.36
2018-09-29T19:30:16.407Z,75.37
2018-09-29T19:35:35.076Z,75.63
2018-09-29T19:40:53.790Z,75.43
2018-09-29T19:46:12.549Z,76.40
2018-09-29T19:51:31.452Z,76.91
2018-09-29T19:56:50.123Z,77.58
2018-09-29T20:02:08.818Z,76.80
2018-09-29T20:07:27.668Z,77.49
2018-09-29T20:12:46.478Z,77.74
2018-09-29T20:18:05.120Z,79.10
2018-09-29T20:23:23.803Z,78.47
2018-09-29T20:28:42.662Z,79.42
2018-09-29T20:34:01.399Z,80.30
2018-09-29T20:39:20.045Z,82.09
2018-09-29T20:44:38.739Z,81.58
2018-09-29T20:49:57.605Z,80.80
2018-09-29T20:55:16.477Z,80.76
2018-09-29T21:00:35.178Z,80.88
2018-09-29T21:05:53.853Z,81.82
2018-09-29T21:11:12.492Z,81.56
2018-09-29T21:16:31.164Z,81.35
2018-09-29T21:21:49.896Z,82.68
2018-09-29T21:27:08.612Z,82.34
2018-09-29T21:32:27.280Z,82.32
2018-09-29T21:37:46.006Z,82.46
2018-09-29T21:43:04.590Z,82.94
2018-09-29T21:48:23.192Z,83.32
2018-09-29T21:53:41.885Z,83.07
2018-09-29T21:59:00.521Z,82.50
2018-09-29T22:04:19.126Z,83.10
2018-09-29T22:09:37.827Z,83.33
2018-09-29T22:14:56.482Z,82.93
2018-09-29T22:20:15.223Z,83.01
2018-09-29T22:25:33.981Z,83.12
2018-09-29T22:30:52.666Z,83.38
2018-09-29T22:36:11.203Z,83.94
2018-09-29T22:41:29.871Z,83.87
2018-09-29T22:46:48.465Z,83.18
2018-09-29T22:52:07.322Z,83.88
2018-09-29T22:57:26.102Z,83.87
2018-09-29T23:02:44.794Z,83.85
2018-09-29T23:08:03.446Z,83.28
2018-09-29T23:13:22.175Z,84.61
2018-09-29T23:18:40.954Z,84.19
2018-09-29T23:23:59.713Z,84.49
2018-09-29T23:29:18.389Z,83.81
2018-09-29T23:34:37.047Z,83.91
2018-09-29T23:39:55.835Z,84.27
2018-09-29T23:45:14.550Z,84.71
2018-09-29T23:50:33.248Z,84.85
2018-09-29T23:55:51.884Z,85.11
